Time;durP1;ratioP1;P1;durP2;ratioP2;P2;SDS_P1;SDS_P2;PMS_P1;PMS_P2;Temp;Humidity;BMP_temperature;BMP_pressure;BME280_temperature;BME280_humidity;BME280_pressure;Samples;Min_cycle;Max_cycle;Signal;HPM_P1;HPM_P2
2023/12/05 00:00:41;;;;;;;14.50;10.30;;;;;;;-1.54;100.00;101093.20;89014;279;137223;-75
2023/12/05 00:02:44;;;;;;;15.30;11.70;;;;;;;-1.59;100.00;101082.00;88926;279;22522;-78
2023/12/05 00:04:46;;;;;;;14.20;10.50;;;;;;;-1.56;100.00;101092.83;88846;271;136493;-78
2023/12/05 00:06:48;;;;;;;11.40;9.80;;;;;;;-1.66;100.00;101088.23;88865;280;22524;-77
2023/12/05 00:08:51;;;;;;;14.30;11.50;;;;;;;-1.70;100.00;101094.20;89222;277;136682;-81
2023/12/05 00:10:53;;;;;;;16.70;12.60;;;;;;;-1.76;100.00;101092.27;88836;273;24029;-77
2023/12/05 00:12:55;;;;;;;16.00;12.10;;;;;;;-1.83;100.00;101091.14;88825;273;138127;-77
2023/12/05 00:14:58;;;;;;;17.10;12.90;;;;;;;-1.90;100.00;101089.77;88818;278;24054;-75
2023/12/05 00:17:00;;;;;;;19.70;11.90;;;;;;;-1.96;100.00;101091.16;88890;277;136201;-75
2023/12/05 00:19:02;;;;;;;19.90;14.50;;;;;;;-2.00;100.00;101092.60;89036;274;25124;-77
2023/12/05 00:21:05;;;;;;;22.60;17.20;;;;;;;-1.92;100.00;101094.62;88826;274;136970;-77
2023/12/05 00:23:07;;;;;;;25.40;17.70;;;;;;;-1.86;100.00;101097.73;89344;271;22516;-78
2023/12/05 00:25:09;;;;;;;27.40;19.10;;;;;;;-1.88;100.00;101102.52;89060;272;137711;-77
2023/12/05 00:27:11;;;;;;;23.20;16.70;;;;;;;-1.91;100.00;101099.95;88867;272;24095;-74
2023/12/05 00:29:14;;;;;;;22.30;17.10;;;;;;;-1.96;100.00;101099.69;88942;271;136513;-78
2023/12/05 00:31:16;;;;;;;23.90;17.20;;;;;;;-1.99;100.00;101096.04;88803;278;24164;-78
2023/12/05 00:33:18;;;;;;;22.20;16.70;;;;;;;-2.04;100.00;101103.14;88776;271;136383;-80
2023/12/05 00:35:24;;;;;;;19.80;14.10;;;;;;;-2.15;100.00;101101.65;89013;273;22554;-76
2023/12/05 00:37:26;;;;;;;19.20;14.80;;;;;;;-2.18;100.00;101104.59;88937;272;140625;-77
2023/12/05 00:39:28;;;;;;;15.50;11.90;;;;;;;-2.13;100.00;101111.66;89067;277;25185;-79
2023/12/05 00:41:30;;;;;;;18.00;13.00;;;;;;;-2.13;100.00;101116.20;88713;278;136527;-77
2023/12/05 00:43:32;;;;;;;16.00;12.00;;;;;;;-2.23;100.00;101118.48;88957;271;22628;-77
2023/12/05 00:45:34;;;;;;;13.90;10.70;;;;;;;-2.31;100.00;101117.73;88854;273;136500;-78
2023/12/05 00:47:36;;;;;;;14.80;12.10;;;;;;;-2.38;100.00;101115.69;88990;280;23282;-75
2023/12/05 00:49:38;;;;;;;14.90;12.20;;;;;;;-2.45;100.00;101116.41;88962;280;136628;-77
2023/12/05 00:51:40;;;;;;;14.40;12.50;;;;;;;-2.49;100.00;101118.05;88854;272;22692;-76
2023/12/05 00:53:42;;;;;;;21.10;12.70;;;;;;;-2.54;100.00;101118.30;88825;276;136527;-77
2023/12/05 00:55:44;;;;;;;14.80;10.70;;;;;;;-2.59;100.00;101118.76;89052;272;25168;-81
2023/12/05 00:57:46;;;;;;;13.50;10.40;;;;;;;-2.63;100.00;101116.17;89058;272;136771;-78
2023/12/05 00:59:48;;;;;;;11.80;9.30;;;;;;;-2.58;100.00;101118.48;89202;272;24055;-81
2023/12/05 01:01:51;;;;;;;13.30;9.90;;;;;;;-2.51;100.00;101119.16;89295;273;137024;-79
2023/12/05 01:03:54;;;;;;;11.50;9.00;;;;;;;-2.54;100.00;101111.54;89153;273;22598;-77
2023/12/05 01:05:56;;;;;;;16.90;11.60;;;;;;;-2.48;100.00;101129.14;88988;280;136762;-80
2023/12/05 01:07:59;;;;;;;13.80;10.50;;;;;;;-2.54;100.00;101131.68;89264;273;22534;-77
2023/12/05 01:10:02;;;;;;;13.80;10.30;;;;;;;-2.56;100.00;101136.86;89058;274;136932;-80
2023/12/05 01:12:05;;;;;;;14.60;10.00;;;;;;;-2.58;100.00;101133.27;89369;280;136705;-79
2023/12/05 01:14:07;;;;;;;15.20;11.40;;;;;;;-2.62;100.00;101135.41;89270;273;24112;-75
2023/12/05 01:16:10;;;;;;;15.30;11.30;;;;;;;-2.74;100.00;101119.75;88786;271;137595;-76
2023/12/05 01:18:12;;;;;;;16.00;12.20;;;;;;;-2.71;100.00;101134.39;88886;276;22524;-78
2023/12/05 01:20:15;;;;;;;17.40;12.10;;;;;;;-2.78;100.00;101134.00;89032;277;137789;-79
2023/12/05 01:22:18;;;;;;;17.60;11.80;;;;;;;-2.81;100.00;101137.84;88850;276;25112;-74
2023/12/05 01:24:20;;;;;;;15.30;11.70;;;;;;;-2.80;100.00;101144.04;88657;272;137115;-76
2023/12/05 01:26:22;;;;;;;15.60;11.40;;;;;;;-2.70;100.00;101144.58;88837;271;22568;-79
2023/12/05 01:28:23;;;;;;;15.10;11.60;;;;;;;-2.64;100.00;101142.33;88944;279;138318;-80
2023/12/05 01:30:25;;;;;;;13.90;10.70;;;;;;;-2.62;100.00;101139.79;88796;280;22541;-77
2023/12/05 01:32:27;;;;;;;16.10;11.80;;;;;;;-2.65;100.00;101140.29;89085;276;159081;-78
2023/12/05 01:34:31;;;;;;;14.90;11.50;;;;;;;-2.71;100.00;101143.95;88899;272;25088;-80
2023/12/05 01:36:33;;;;;;;15.90;11.80;;;;;;;-2.79;100.00;101141.41;88696;277;136091;-79
2023/12/05 01:38:35;;;;;;;17.40;11.80;;;;;;;-2.84;100.00;101142.52;88890;281;22537;-80
2023/12/05 01:40:37;;;;;;;16.80;13.20;;;;;;;-2.87;100.00;101140.80;88986;273;137013;-80
2023/12/05 01:42:39;;;;;;;18.20;13.30;;;;;;;-3.00;100.00;101126.36;88850;276;22530;-79
2023/12/05 01:44:42;;;;;;;16.40;12.90;;;;;;;-2.97;100.00;101143.55;88856;272;137002;-78
2023/12/05 01:46:45;;;;;;;18.80;12.50;;;;;;;-3.02;100.00;101145.06;89064;272;22543;-78
2023/12/05 01:48:48;;;;;;;16.20;12.20;;;;;;;-3.08;100.00;101140.70;88855;277;136765;-75
2023/12/05 01:50:51;;;;;;;13.80;10.80;;;;;;;-3.09;100.00;101137.58;89052;281;22552;-82
2023/12/05 01:52:57;;;;;;;14.20;11.10;;;;;;;-3.03;100.00;101140.21;89018;276;138635;-78
2023/12/05 01:54:59;;;;;;;17.60;11.20;;;;;;;-2.99;100.00;101140.91;89078;279;25087;-79
2023/12/05 01:57:02;;;;;;;16.70;12.70;;;;;;;-2.99;100.00;101141.08;89123;272;137092;-76
2023/12/05 01:59:05;;;;;;;16.20;12.60;;;;;;;-3.04;100.00;101135.42;89248;277;24059;-81
2023/12/05 02:01:08;;;;;;;15.20;11.20;;;;;;;-3.10;100.00;101132.93;89365;276;136373;-78
2023/12/05 02:03:10;;;;;;;17.00;12.70;;;;;;;-3.15;100.00;101129.07;89418;279;22530;-81
2023/12/05 02:05:14;;;;;;;17.60;13.50;;;;;;;-3.22;100.00;101130.11;88792;276;136579;-84
2023/12/05 02:07:16;;;;;;;18.60;13.90;;;;;;;-3.29;100.00;101131.71;89040;281;22530;-84
2023/12/05 02:09:19;;;;;;;17.50;13.60;;;;;;;-3.36;100.00;101128.74;89404;280;138742;-80
2023/12/05 02:11:21;;;;;;;16.90;13.50;;;;;;;-3.42;100.00;101131.82;89257;276;23323;-79
2023/12/05 02:13:23;;;;;;;20.00;14.00;;;;;;;-3.48;100.00;101130.41;88919;274;136735;-80
2023/12/05 02:15:26;;;;;;;16.20;13.50;;;;;;;-3.46;100.00;101129.43;89168;276;22514;-78
2023/12/05 02:17:38;;;;;;;18.80;13.60;;;;;;;-3.37;100.00;101129.48;89072;280;138220;-79
2023/12/05 02:19:46;;;;;;;17.50;13.00;;;;;;;-3.33;100.00;101129.29;89069;272;22545;-80
2023/12/05 02:21:53;;;;;;;20.50;13.60;;;;;;;-3.31;100.00;101130.75;88958;279;137267;-80
2023/12/05 02:24:18;;;;;;;19.60;14.70;;;;;;;-3.33;100.00;101130.66;88964;279;22777;-76
2023/12/05 02:26:43;;;;;;;18.10;14.10;;;;;;;-3.38;100.00;101127.77;89076;279;22532;-77
2023/12/05 02:28:45;;;;;;;20.80;14.90;;;;;;;-3.44;100.00;101125.34;88910;276;136309;-78
2023/12/05 02:30:47;;;;;;;23.00;14.90;;;;;;;-3.48;100.00;101129.00;88858;276;22596;-78
2023/12/05 02:32:49;;;;;;;17.00;13.60;;;;;;;-3.52;100.00;101128.02;88845;276;137002;-83
2023/12/05 02:34:51;;;;;;;21.50;14.20;;;;;;;-3.54;100.00;101131.93;89150;278;25190;-78
2023/12/05 02:37:19;;;;;;;20.50;14.20;;;;;;;-3.59;100.00;101132.00;89542;279;137753;-77
2023/12/05 02:39:38;;;;;;;17.80;12.60;;;;;;;-3.64;100.00;101131.42;89516;273;22596;-78
2023/12/05 02:41:45;;;;;;;15.30;12.30;;;;;;;-3.59;100.00;101136.70;89687;276;137055;-78
2023/12/05 02:43:58;;;;;;;18.60;13.10;;;;;;;-3.49;100.00;101136.52;89567;280;23985;-79
2023/12/05 02:46:03;;;;;;;20.70;13.40;;;;;;;-3.44;100.00;101140.46;89042;279;136504;-82
2023/12/05 02:48:12;;;;;;;16.70;12.30;;;;;;;-3.48;100.00;101139.24;89317;279;136497;-79
2023/12/05 02:50:18;;;;;;;18.10;13.90;;;;;;;-3.53;100.00;101139.52;90814;280;22791;-74
2023/12/05 02:52:20;;;;;;;18.50;13.90;;;;;;;-3.56;100.00;101141.59;90850;280;136849;-75
2023/12/05 02:54:22;;;;;;;19.30;13.80;;;;;;;-3.58;100.00;101139.94;90284;279;22533;-77
2023/12/05 02:56:24;;;;;;;20.30;13.70;;;;;;;-3.59;100.00;101145.19;89203;280;137227;-76
2023/12/05 02:58:27;;;;;;;20.30;14.30;;;;;;;-3.62;100.00;101143.80;89339;272;22534;-76
2023/12/05 03:00:29;;;;;;;19.20;14.70;;;;;;;-3.67;100.00;101145.09;88935;272;136635;-75
2023/12/05 03:02:31;;;;;;;18.30;13.00;;;;;;;-3.72;100.00;101148.81;88940;279;22521;-77
2023/12/05 03:04:34;;;;;;;21.80;14.50;;;;;;;-3.73;100.00;101148.00;88761;271;137041;-77
2023/12/05 03:06:36;;;;;;;16.80;13.50;;;;;;;-3.67;100.00;101145.80;89021;277;23172;-75
2023/12/05 03:08:38;;;;;;;20.00;13.90;;;;;;;-3.64;100.00;101144.39;88654;280;137346;-75
2023/12/05 03:10:40;;;;;;;15.00;11.90;;;;;;;-3.61;100.00;101146.33;88917;279;24434;-75
2023/12/05 03:12:53;;;;;;;16.00;13.30;;;;;;;-3.64;100.00;101147.90;88837;280;136858;-77
2023/12/05 03:14:55;;;;;;;19.90;14.30;;;;;;;-3.69;100.00;101155.63;88819;279;26177;-76
2023/12/05 03:16:57;;;;;;;17.50;12.90;;;;;;;-3.73;100.00;101160.14;88770;279;136634;-74
2023/12/05 03:20:11;;;;;;;20.90;15.00;;;;;;;-3.79;100.00;101166.54;86815;306;602938;-76
2023/12/05 03:22:13;;;;;;;15.80;11.90;;;;;;;-3.82;100.00;101167.18;87830;297;22539;-77
2023/12/05 03:24:15;;;;;;;19.70;13.70;;;;;;;-3.86;100.00;101166.34;87854;289;137278;-76
2023/12/05 03:26:21;;;;;;;17.90;13.90;;;;;;;-3.91;100.00;101164.48;87979;288;22565;-75
2023/12/05 03:28:23;;;;;;;18.20;13.20;;;;;;;-3.95;100.00;101161.91;87751;298;136808;-74
2023/12/05 03:30:25;;;;;;;17.50;11.70;;;;;;;-3.98;100.00;101163.66;87987;293;24031;-76
2023/12/05 03:32:27;;;;;;;19.70;14.00;;;;;;;-3.95;100.00;101164.89;87852;293;158560;-77
2023/12/05 03:34:30;;;;;;;23.30;13.50;;;;;;;-3.89;100.00;101170.29;87854;282;689855;-74
2023/12/05 03:36:32;;;;;;;24.30;14.10;;;;;;;-3.83;100.00;101165.01;88434;278;136733;-76
2023/12/05 03:38:34;;;;;;;16.40;12.50;;;;;;;-3.80;100.00;101169.19;88549;285;25876;-75
2023/12/05 03:40:36;;;;;;;19.90;12.80;;;;;;;-3.84;100.00;101170.23;88477;277;136090;-75
2023/12/05 03:42:37;;;;;;;20.60;14.80;;;;;;;-3.87;100.00;101172.50;88472;279;25174;-75
2023/12/05 03:44:40;;;;;;;18.90;13.40;;;;;;;-3.90;100.00;101168.27;88428;285;137798;-75
2023/12/05 03:46:42;;;;;;;19.50;13.40;;;;;;;-3.93;100.00;101165.45;88564;284;26184;-76
2023/12/05 03:48:44;;;;;;;17.10;13.50;;;;;;;-3.94;100.00;101166.23;88439;282;137041;-76
2023/12/05 03:50:46;;;;;;;20.80;15.30;;;;;;;-3.97;100.00;101165.52;88547;279;22741;-75
2023/12/05 03:52:48;;;;;;;17.30;13.30;;;;;;;-3.99;100.00;101167.34;88569;284;136431;-73
2023/12/05 03:54:50;;;;;;;19.70;12.80;;;;;;;-4.02;100.00;101166.27;88618;281;22540;-76
2023/12/05 03:56:52;;;;;;;22.90;15.30;;;;;;;-4.07;100.00;101165.29;88504;283;136388;-76
2023/12/05 03:58:54;;;;;;;20.40;13.80;;;;;;;-4.12;100.00;101161.02;88512;286;25197;-77
2023/12/05 04:00:56;;;;;;;21.00;14.30;;;;;;;-4.15;100.00;101154.02;88368;285;136208;-76
2023/12/05 04:02:58;;;;;;;23.60;15.00;;;;;;;-4.02;100.00;101164.72;88576;277;22582;-73
2023/12/05 04:05:01;;;;;;;20.80;13.90;;;;;;;-3.97;100.00;101170.16;88529;284;136800;-75
2023/12/05 04:07:04;;;;;;;20.50;14.50;;;;;;;-3.93;100.00;101168.42;88672;285;22535;-76
2023/12/05 04:09:07;;;;;;;19.50;14.30;;;;;;;-3.95;100.00;101172.48;89428;286;137293;-72
2023/12/05 04:11:09;;;;;;;21.50;15.00;;;;;;;-4.00;100.00;101172.92;88666;285;22527;-75
2023/12/05 04:13:11;;;;;;;25.20;15.90;;;;;;;-4.04;100.00;101166.18;88374;277;136464;-74
2023/12/05 04:15:13;;;;;;;26.60;19.50;;;;;;;-4.07;100.00;101167.39;88368;282;22901;-75
2023/12/05 04:17:15;;;;;;;26.70;17.60;;;;;;;-4.12;100.00;101167.10;88303;285;137439;-75
2023/12/05 04:19:17;;;;;;;26.50;18.70;;;;;;;-4.16;100.00;101161.85;88457;278;22537;-75
2023/12/05 04:21:20;;;;;;;31.60;20.70;;;;;;;-4.18;100.00;101163.88;88369;286;136848;-74
2023/12/05 04:23:22;;;;;;;27.60;20.20;;;;;;;-4.21;100.00;101161.97;88574;278;23539;-74
2023/12/05 04:25:24;;;;;;;31.00;23.10;;;;;;;-4.26;100.00;101161.66;88276;286;135840;-74
2023/12/05 04:27:26;;;;;;;34.10;22.60;;;;;;;-4.30;100.00;101154.90;88448;282;22556;-74
2023/12/05 04:29:28;;;;;;;31.20;22.90;;;;;;;-4.32;100.00;101150.69;88449;282;137719;-73
2023/12/05 04:31:30;;;;;;;32.00;23.40;;;;;;;-4.22;100.00;101153.47;88461;283;22539;-74
2023/12/05 04:33:32;;;;;;;35.40;25.50;;;;;;;-4.16;100.00;101155.63;88511;282;138147;-74
2023/12/05 04:35:35;;;;;;;30.10;23.00;;;;;;;-4.12;100.00;101156.65;88575;278;22622;-76
2023/12/05 04:37:37;;;;;;;35.50;24.40;;;;;;;-4.12;100.00;101155.27;88596;284;136083;-75
2023/12/05 04:39:42;;;;;;;34.10;24.50;;;;;;;-4.22;100.00;101139.73;88557;284;22534;-75
2023/12/05 04:41:44;;;;;;;36.70;25.30;;;;;;;-4.17;100.00;101154.80;88420;276;136174;-73
2023/12/05 04:43:46;;;;;;;34.10;24.20;;;;;;;-4.23;100.00;101152.83;88527;285;22547;-74
2023/12/05 04:45:48;;;;;;;30.30;22.20;;;;;;;-4.28;100.00;101151.18;88461;284;136087;-76
2023/12/05 04:47:51;;;;;;;33.20;22.20;;;;;;;-4.34;100.00;101150.39;88591;282;22546;-73
2023/12/05 04:49:53;;;;;;;34.50;24.50;;;;;;;-4.38;100.00;101155.10;88354;279;136194;-76
2023/12/05 04:51:54;;;;;;;35.50;24.40;;;;;;;-4.42;100.00;101157.23;88499;278;22527;-75
2023/12/05 04:53:56;;;;;;;33.10;24.70;;;;;;;-4.47;100.00;101161.26;88466;284;136065;-75
2023/12/05 04:55:59;;;;;;;32.60;21.60;;;;;;;-4.60;100.00;101142.95;88549;276;24014;-74
2023/12/05 04:58:01;;;;;;;28.40;19.60;;;;;;;-4.48;100.00;101160.44;88473;284;136242;-75
2023/12/05 05:00:05;;;;;;;26.90;18.30;;;;;;;-4.41;100.00;101156.98;88496;286;24055;-75
2023/12/05 05:02:12;;;;;;;27.30;18.00;;;;;;;-4.36;100.00;101159.73;88603;285;24021;-74
2023/12/05 05:04:14;;;;;;;28.90;21.30;;;;;;;-4.33;100.00;101164.92;88498;276;136538;-75
2023/12/05 05:06:16;;;;;;;27.50;20.20;;;;;;;-4.43;100.00;101156.56;88562;278;24171;-75
2023/12/05 05:08:18;;;;;;;23.60;17.30;;;;;;;-4.39;100.00;101166.63;88335;286;136044;-74
2023/12/05 05:10:20;;;;;;;24.50;18.10;;;;;;;-4.43;100.00;101170.64;88544;281;22585;-75
2023/12/05 05:12:22;;;;;;;27.70;19.00;;;;;;;-4.51;100.00;101169.77;88443;285;136980;-76
2023/12/05 05:14:24;;;;;;;29.10;20.70;;;;;;;-4.58;100.00;101164.72;88700;285;22628;-71
2023/12/05 05:16:26;;;;;;;24.90;17.40;;;;;;;-4.74;100.00;101154.88;88549;284;136168;-76
2023/12/05 05:18:28;;;;;;;25.50;19.00;;;;;;;-4.67;100.00;101174.87;88602;276;22557;-72
2023/12/05 05:20:30;;;;;;;25.50;17.70;;;;;;;-4.64;100.00;101177.14;88582;277;138085;-69
2023/12/05 05:22:33;;;;;;;26.30;17.50;;;;;;;-4.80;100.00;101149.44;88648;285;24021;-73
2023/12/05 05:24:35;;;;;;;28.80;18.50;;;;;;;-4.62;100.00;101180.17;88363;285;137016;-70
2023/12/05 05:26:37;;;;;;;29.20;20.40;;;;;;;-4.63;100.00;101188.35;88656;284;24058;-72
2023/12/05 05:28:39;;;;;;;30.80;20.80;;;;;;;-4.71;100.00;101185.58;88289;280;135886;-70
2023/12/05 05:30:41;;;;;;;31.40;20.40;;;;;;;-4.76;100.00;101183.26;88441;285;22544;-71
2023/12/05 05:32:43;;;;;;;31.20;22.10;;;;;;;-4.81;100.00;101187.79;88472;284;135995;-85
2023/12/05 05:34:45;;;;;;;30.00;19.50;;;;;;;-4.85;100.00;101187.45;88405;284;22557;-78
2023/12/05 05:36:47;;;;;;;27.90;19.70;;;;;;;-4.83;100.00;101193.08;88260;276;136643;-78
2023/12/05 05:38:49;;;;;;;29.40;19.70;;;;;;;-4.79;100.00;101191.84;88338;278;22536;-79
2023/12/05 05:41:03;;;;;;;34.20;23.20;;;;;;;-4.79;100.00;101192.20;88256;282;137147;-71
2023/12/05 05:43:05;;;;;;;30.10;22.70;;;;;;;-4.81;100.00;101194.57;88423;285;24483;-73
2023/12/05 05:45:08;;;;;;;34.80;23.40;;;;;;;-4.87;100.00;101202.81;88121;286;136596;-74
2023/12/05 05:47:10;;;;;;;38.80;23.10;;;;;;;-4.92;100.00;101208.58;88289;282;26184;-74
2023/12/05 05:49:12;;;;;;;33.70;23.20;;;;;;;-4.99;100.00;101208.85;88198;278;136329;-74
2023/12/05 05:51:14;;;;;;;31.90;20.20;;;;;;;-4.97;100.00;101210.52;88277;278;25312;-74
2023/12/05 05:53:16;;;;;;;35.60;22.80;;;;;;;-4.90;100.00;101209.50;88105;285;136918;-74
2023/12/05 05:55:19;;;;;;;38.30;22.70;;;;;;;-4.84;100.00;101209.25;88373;285;24057;-74
2023/12/05 05:57:21;;;;;;;32.40;22.70;;;;;;;-4.86;100.00;101213.70;88202;287;135912;-76
2023/12/05 05:59:24;;;;;;;33.70;22.40;;;;;;;-4.93;100.00;101216.59;88529;279;22540;-73
2023/12/05 06:01:25;;;;;;;32.10;22.90;;;;;;;-4.98;100.00;101217.13;88305;284;136229;-76
2023/12/05 06:03:30;;;;;;;37.10;22.50;;;;;;;-4.99;100.00;101218.76;88402;276;22530;-69
2023/12/05 06:05:33;;;;;;;39.10;24.90;;;;;;;-4.99;100.00;101221.17;88495;278;138261;-72
2023/12/05 06:07:37;;;;;;;37.20;23.50;;;;;;;-4.93;100.00;101224.38;88468;285;24067;-73
2023/12/05 06:09:39;;;;;;;34.80;23.40;;;;;;;-4.87;100.00;101228.63;88374;284;137006;-76
2023/12/05 06:11:43;;;;;;;36.90;23.20;;;;;;;-4.91;100.00;101221.67;88120;288;22544;-75
2023/12/05 06:13:45;;;;;;;32.00;22.70;;;;;;;-4.81;100.00;101233.58;88088;283;137715;-79
2023/12/05 06:15:47;;;;;;;32.00;22.30;;;;;;;-4.83;100.00;101234.53;88403;285;22543;-80
2023/12/05 06:17:49;;;;;;;38.50;23.00;;;;;;;-4.85;100.00;101232.21;88275;278;136450;-78
2023/12/05 06:19:51;;;;;;;33.60;22.60;;;;;;;-4.89;100.00;101233.37;88476;286;22530;-78
2023/12/05 06:21:53;;;;;;;30.90;20.20;;;;;;;-4.90;100.00;101237.06;88665;282;137099;-79
2023/12/05 06:23:56;;;;;;;32.20;21.00;;;;;;;-4.89;100.00;101227.86;88437;277;24105;-71
2023/12/05 06:25:57;;;;;;;34.30;22.70;;;;;;;-4.73;100.00;101248.63;88420;276;136873;-73
2023/12/05 06:28:00;;;;;;;35.90;23.50;;;;;;;-4.68;100.00;101257.64;88379;276;24068;-76
2023/12/05 06:30:03;;;;;;;38.00;24.90;;;;;;;-4.68;100.00;101263.70;88594;276;24018;-81
2023/12/05 06:32:21;;;;;;;31.80;21.80;;;;;;;-4.76;100.00;101265.58;88365;282;137597;-73
2023/12/05 06:34:24;;;;;;;37.30;24.70;;;;;;;-4.88;100.00;101254.48;88568;274;22536;-80
2023/12/05 06:36:27;;;;;;;37.20;23.50;;;;;;;-4.83;100.00;101268.32;88622;274;138401;-75
2023/12/05 06:38:29;;;;;;;35.90;24.40;;;;;;;-4.87;100.00;101263.30;88725;279;24052;-79
2023/12/05 06:40:31;;;;;;;37.50;23.60;;;;;;;-4.72;100.00;101270.09;89025;276;137215;-83
2023/12/05 06:42:34;;;;;;;37.20;23.80;;;;;;;-4.66;100.00;101271.92;88742;275;24036;-78
2023/12/05 06:44:36;;;;;;;41.50;25.70;;;;;;;-4.64;100.00;101274.61;88480;282;136876;-80
2023/12/05 06:46:38;;;;;;;45.50;27.60;;;;;;;-4.67;100.00;101275.11;88383;282;25290;-78
2023/12/05 06:48:42;;;;;;;46.80;28.60;;;;;;;-4.74;100.00;101266.71;88317;276;137784;-83
2023/12/05 06:50:48;;;;;;;41.00;27.30;;;;;;;-4.76;100.00;101266.12;88473;282;24650;-80
2023/12/05 06:52:51;;;;;;;45.50;28.70;;;;;;;-4.79;100.00;101265.55;88435;278;136990;-82
2023/12/05 06:54:54;;;;;;;44.10;27.00;;;;;;;-4.76;100.00;101267.34;88507;281;24027;-80
2023/12/05 06:56:56;;;;;;;45.90;28.60;;;;;;;-4.68;100.00;101265.42;88511;274;137163;-74
2023/12/05 06:59:00;;;;;;;40.90;25.70;;;;;;;-4.64;100.00;101269.22;88456;275;22608;-86
2023/12/05 07:01:03;;;;;;;42.90;26.70;;;;;;;-4.63;100.00;101267.64;88397;282;137190;-87
2023/12/05 07:03:05;;;;;;;43.40;28.70;;;;;;;-4.68;100.00;101267.67;88590;282;23829;-88
2023/12/05 07:05:08;;;;;;;42.90;28.90;;;;;;;-4.75;100.00;101262.61;88427;282;136777;-86
2023/12/05 07:07:11;;;;;;;52.50;31.50;;;;;;;-4.81;100.00;101258.89;88612;283;23975;-76
2023/12/05 07:09:13;;;;;;;51.00;30.70;;;;;;;-4.87;100.00;101256.71;88383;284;137433;-86
2023/12/05 07:11:16;;;;;;;47.70;31.40;;;;;;;-4.90;100.00;101255.45;88598;276;22553;-75
2023/12/05 07:13:19;;;;;;;45.90;29.20;;;;;;;-4.86;100.00;101255.97;91119;282;137058;-79
2023/12/05 07:15:21;;;;;;;48.40;31.40;;;;;;;-4.76;100.00;101260.57;91109;283;22972;-80
2023/12/05 07:17:24;;;;;;;48.10;29.80;;;;;;;-4.69;100.00;101258.88;91172;282;138045;-73
2023/12/05 07:19:26;;;;;;;45.70;29.70;;;;;;;-4.69;100.00;101263.40;91290;280;22857;-84
2023/12/05 07:21:28;;;;;;;48.60;29.50;;;;;;;-4.74;100.00;101259.98;91213;282;137291;-83
2023/12/05 07:23:30;;;;;;;54.30;33.10;;;;;;;-4.76;100.00;101260.38;91447;283;22323;-75
2023/12/05 07:25:33;;;;;;;48.90;32.00;;;;;;;-4.74;100.00;101256.14;91175;276;137373;-70
2023/12/05 07:27:35;;;;;;;46.30;30.00;;;;;;;-4.71;100.00;101254.08;90066;275;26266;-82
2023/12/05 07:29:38;;;;;;;47.50;29.60;;;;;;;-4.65;100.00;101251.25;88580;276;137259;-85
2023/12/05 07:31:40;;;;;;;42.40;28.10;;;;;;;-4.53;100.00;101247.73;88516;277;26312;-85
2023/12/05 07:33:42;;;;;;;48.40;30.10;;;;;;;-4.40;100.00;101248.05;88630;275;137755;-83
2023/12/05 07:35:44;;;;;;;49.30;33.20;;;;;;;-4.29;100.00;101251.35;88736;275;22472;-79
2023/12/05 07:37:46;;;;;;;46.50;30.50;;;;;;;-4.24;100.00;101251.10;88622;281;136356;-84
2023/12/05 07:39:48;;;;;;;50.40;31.10;;;;;;;-4.22;100.00;101256.23;88689;274;22527;-86
2023/12/05 07:41:50;;;;;;;42.30;28.30;;;;;;;-4.18;100.00;101259.02;88478;281;136920;-82
2023/12/05 07:43:52;;;;;;;51.40;31.80;;;;;;;-4.19;100.00;101259.40;88463;276;24018;-77
2023/12/05 07:45:54;;;;;;;59.80;36.10;;;;;;;-4.21;100.00;101262.77;88564;282;136629;-87
2023/12/05 07:47:56;;;;;;;52.90;32.90;;;;;;;-4.23;100.00;101261.84;88790;276;22553;-86
2023/12/05 07:49:59;;;;;;;50.70;32.60;;;;;;;-4.22;100.00;101249.82;89521;274;137947;-80
2023/12/05 07:52:04;;;;;;;54.80;31.70;;;;;;;-3.98;100.00;101262.96;89898;282;22597;-78
2023/12/05 07:54:06;;;;;;;;;;;;;;;-3.93;100.00;101250.39;89661;281;22507;-87
2023/12/05 07:56:09;;;;;;;49.90;30.20;;;;;;;-3.84;100.00;101265.42;88988;274;122753;-87
2023/12/05 07:58:13;;;;;;;51.20;33.80;;;;;;;-3.86;100.00;101270.20;89264;276;22911;-85
2023/12/05 08:00:18;;;;;;;51.50;33.30;;;;;;;-3.89;100.00;101268.95;89749;284;136695;-86
2023/12/05 08:02:21;;;;;;;51.30;33.50;;;;;;;-3.89;100.00;101269.63;88878;276;25121;-77
2023/12/05 08:04:23;;;;;;;50.10;31.80;;;;;;;-3.88;100.00;101265.61;88534;284;137997;-75
2023/12/05 08:06:25;;;;;;;47.80;29.40;;;;;;;-3.83;100.00;101268.12;88711;282;22571;-71
2023/12/05 08:08:35;;;;;;;50.70;29.60;;;;;;;-3.70;100.00;101270.13;88499;277;138102;-77
2023/12/05 08:10:37;;;;;;;50.70;31.20;;;;;;;-3.62;100.00;101271.82;88750;275;22531;-75
2023/12/05 08:12:39;;;;;;;51.50;34.10;;;;;;;-3.63;100.00;101267.38;88640;282;136363;-77
2023/12/05 08:14:43;;;;;;;55.30;35.10;;;;;;;-3.67;100.00;101271.20;88678;280;22561;-75
2023/12/05 08:16:46;;;;;;;51.90;31.30;;;;;;;-3.70;100.00;101275.15;88835;276;136718;-81
2023/12/05 08:18:48;;;;;;;50.10;31.10;;;;;;;-3.73;100.00;101278.94;88600;276;22557;-74
2023/12/05 08:20:50;;;;;;;48.50;31.00;;;;;;;-3.69;100.00;101278.09;88382;282;137447;-79
2023/12/05 08:22:52;;;;;;;49.00;32.00;;;;;;;-3.58;100.00;101279.30;88449;276;25128;-71
2023/12/05 08:24:57;;;;;;;53.10;34.30;;;;;;;-3.50;100.00;101276.82;88511;279;136945;-68
2023/12/05 08:27:00;;;;;;;50.40;32.60;;;;;;;-3.51;100.00;101277.19;88339;278;24183;-72
2023/12/05 08:29:03;;;;;;;55.10;36.60;;;;;;;-3.59;100.00;101273.75;88288;282;136759;-63
2023/12/05 08:31:06;;;;;;;54.40;32.80;;;;;;;-3.60;100.00;101272.45;88331;280;22594;-69
2023/12/05 08:33:09;;;;;;;49.10;31.90;;;;;;;-3.59;100.00;101268.38;88470;280;136702;-70
2023/12/05 08:35:12;;;;;;;46.90;29.70;;;;;;;-3.64;100.00;101248.98;88357;276;24096;-71
2023/12/05 08:37:15;;;;;;;47.80;28.40;;;;;;;-3.41;100.00;101265.95;88336;275;137170;-75
2023/12/05 08:39:17;;;;;;;40.80;28.80;;;;;;;-3.26;100.00;101266.77;88358;276;22537;-73
2023/12/05 08:41:19;;;;;;;44.10;27.90;;;;;;;-3.13;100.00;101267.15;88376;279;136831;-67
2023/12/05 08:43:22;;;;;;;42.60;27.90;;;;;;;-3.11;100.00;101269.86;88609;279;22566;-70
2023/12/05 08:45:24;;;;;;;54.30;33.70;;;;;;;-3.18;100.00;101272.80;88445;278;137566;-71
2023/12/05 08:47:27;;;;;;;50.30;33.40;;;;;;;-3.21;100.00;101268.27;88702;276;23947;-72
2023/12/05 08:49:30;;;;;;;49.10;32.30;;;;;;;-3.17;100.00;101268.73;88617;281;136570;-76
2023/12/05 08:51:32;;;;;;;49.70;34.10;;;;;;;-3.12;100.00;101265.91;88547;279;22537;-73
2023/12/05 08:53:35;;;;;;;59.10;35.90;;;;;;;-3.09;100.00;101263.14;88409;274;136590;-67
2023/12/05 08:55:39;;;;;;;52.10;34.50;;;;;;;-3.07;100.00;101258.38;88536;274;22954;-69
2023/12/05 08:57:42;;;;;;;47.60;32.40;;;;;;;-3.04;100.00;101251.21;89629;275;136446;-78
2023/12/05 08:59:45;;;;;;;49.50;32.20;;;;;;;-2.95;100.00;101248.49;89533;282;23914;-74
2023/12/05 09:01:48;;;;;;;47.10;32.90;;;;;;;-2.82;100.00;101252.55;89628;278;136871;-77
2023/12/05 09:03:54;;;;;;;44.30;30.60;;;;;;;-2.87;100.00;101243.25;89514;281;22539;-73
2023/12/05 09:05:56;;;;;;;45.40;30.20;;;;;;;-2.82;100.00;101249.95;88811;274;136104;-76
2023/12/05 09:08:00;;;;;;;49.00;31.60;;;;;;;-2.83;100.00;101248.25;88472;276;23978;-74
2023/12/05 09:10:03;;;;;;;48.30;32.00;;;;;;;-2.84;100.00;101245.87;89057;282;22574;-72
2023/12/05 09:12:08;;;;;;;53.00;32.40;;;;;;;-2.83;100.00;101237.60;89098;279;136486;-76
2023/12/05 09:14:11;;;;;;;48.20;29.60;;;;;;;-2.78;100.00;101232.33;88880;281;22537;-75
2023/12/05 09:16:14;;;;;;;50.40;31.20;;;;;;;-2.72;100.00;101235.87;88593;282;136696;-69
2023/12/05 09:18:16;;;;;;;47.30;30.60;;;;;;;-2.65;100.00;101238.23;88697;282;22529;-72